Virtual LH

Virtual LH. There's no better way to fly
Since 2013.



AIRPORT MAP

METAR AND TAF INFORMATION

METAR FOR GOBD
ADDS - METARS form results

(1040 UTC 21 January 2019)
Data provider http://aviationweather.gov/metar/data/
 
METAR text: GOBD 211030Z 06014KT 8000 NSC 23/M09 Q1018 NOSIG
Conditions at: GOBD (DAKAR/DIAGNE , SN) observed 1030 UTC 21 January 2019
Temperature: 23.0°C (73°F)
Dewpoint: -9.0°C (16°F) [RH = 11%]
Pressure (altimeter): 30.06 inches Hg (1018.0 mb)
Winds: from the ENE (60 degrees) at 16 MPH (14 knots; 7.2 m/s)
Visibility: 5 miles ( 8 km)
Ceiling: at least 12,000 feet AGL
Clouds: sky clear below 12,000 feet AGL
Weather: no significant weather observed at this time

METAR text: GOBD 211000Z 06015KT 8000 NSC 22/M10 Q1018 NOSIG
Conditions at: GOBD (DAKAR/DIAGNE , SN) observed 1000 UTC 21 January 2019
Temperature: 22.0°C (72°F)
Dewpoint: -10.0°C (14°F) [RH = 11%]
Pressure (altimeter): 30.06 inches Hg (1018.0 mb)
Winds: from the ENE (60 degrees) at 17 MPH (15 knots; 7.7 m/s)
Visibility: 5 miles ( 8 km)
Ceiling: at least 12,000 feet AGL
Clouds: sky clear below 12,000 feet AGL
Weather: no significant weather observed at this time

Forecast for: GOBD (DAKAR/DIAGNE , SN)
Text: TAF GOBD 210530Z 2106/2212 04013KT CAVOK
Forecast period: 0600 UTC 21 January 2019 to 1200 UTC 22 January 2019
Forecast type: FROM: standard forecast or significant change
Winds: from the NE (40 degrees) at 15 MPH (13 knots; 6.7 m/s)
Visibility: 6 or more miles 10+ km)
Ceiling: unknown
Clouds: missing
Weather: NSW  (no significant weather)

RUNWAY INFORMATION


AIRPORT FREQUENCIES


AIRPORT NEAR NAVIGATION AIDS